VTK601 UUEE-LTAI
Flight info
| Callsign | VTK601 |
|---|---|
| Flight time | N/A |
| Altitude | 34000 |
| Route | SOTOG3K SOTOG N181 LIMPI/K0835F350 N609 BERUN P29 FORMA M995 OLGIN/K0839F360 G476 PATUM/K0835F350 G476 ANAKA/K0843F360 G476 ODIRA/N0459F360 UW96 SIN UT61 BAG/N0456F370 UP29 DAMLA |
| Aircraft | A321/M-SDE3FGHIRWY/LB1 |
Departure
| Time | 2026-05-06 08:10 |
|---|---|
| Airport | Sheremetyevo International Airport (UUEE) |
Arrival
| Time | N/A |
|---|---|
| Airport | Antalya International Airport (LTAI) |
| Time | Latitude | Longitude | Altitude | Speed | Heading |
|---|---|---|---|---|---|
| 2026-05-06 08:05 | 55.97928 | 37.42138 | 639 ft | 0 kts | 255° |
| 2026-05-06 08:06 | 55.97927 | 37.42138 | 639 ft | 0 kts | 255° |
| 2026-05-06 08:06 | 55.97927 | 37.42136 | 639 ft | 0 kts | 255° |
| 2026-05-06 08:06 | 55.97924 | 37.42115 | 639 ft | 5 kts | 253° |
| 2026-05-06 08:07 | 55.97892 | 37.42049 | 639 ft | 10 kts | 200° |
| 2026-05-06 08:07 | 55.97807 | 37.42094 | 641 ft | 16 kts | 164° |
| 2026-05-06 08:07 | 55.97704 | 37.42185 | 644 ft | 17 kts | 114° |
| 2026-05-06 08:07 | 55.97717 | 37.42392 | 643 ft | 18 kts | 76° |
| 2026-05-06 08:08 | 55.97749 | 37.42615 | 643 ft | 20 kts | 75° |
| 2026-05-06 08:08 | 55.97790 | 37.42889 | 645 ft | 25 kts | 75° |
| 2026-05-06 08:08 | 55.97837 | 37.43203 | 646 ft | 27 kts | 75° |
| 2026-05-06 08:08 | 55.97887 | 37.43532 | 639 ft | 27 kts | 75° |
| 2026-05-06 08:09 | 55.97934 | 37.43844 | 639 ft | 19 kts | 75° |
| 2026-05-06 08:09 | 55.97913 | 37.44036 | 640 ft | 17 kts | 149° |
| 2026-05-06 08:09 | 55.97802 | 37.44052 | 644 ft | 16 kts | 213° |
| 2026-05-06 08:09 | 55.97758 | 37.43870 | 643 ft | 17 kts | 255° |
| 2026-05-06 08:10 | 55.97689 | 37.43410 | 642 ft | 72 kts | 255° |
| 2026-05-06 08:10 | 55.97500 | 37.42149 | 643 ft | 135 kts | 255° |
| 2026-05-06 08:10 | 55.97222 | 37.40255 | 722 ft | 174 kts | 256° |
| 2026-05-06 08:10 | 55.96890 | 37.38150 | 1344 ft | 177 kts | 249° |
| 2026-05-06 08:11 | 55.96264 | 37.36247 | 2059 ft | 179 kts | 237° |
| 2026-05-06 08:11 | 55.95553 | 37.34403 | 2660 ft | 185 kts | 236° |
| 2026-05-06 08:11 | 55.94774 | 37.32419 | 2884 ft | 204 kts | 237° |
| 2026-05-06 08:11 | 55.93929 | 37.30277 | 3165 ft | 216 kts | 237° |
| 2026-05-06 08:12 | 55.93054 | 37.28063 | 3678 ft | 220 kts | 237° |
| 2026-05-06 08:12 | 55.92171 | 37.25826 | 4410 ft | 219 kts | 237° |
| 2026-05-06 08:12 | 55.91300 | 37.23618 | 5248 ft | 217 kts | 238° |
| 2026-05-06 08:12 | 55.90439 | 37.21424 | 6071 ft | 215 kts | 238° |
| 2026-05-06 08:13 | 55.89595 | 37.19256 | 6662 ft | 217 kts | 238° |
| 2026-05-06 08:13 | 55.88817 | 37.16966 | 6828 ft | 220 kts | 248° |
| 2026-05-06 08:13 | 55.88186 | 37.14307 | 6863 ft | 241 kts | 248° |
| 2026-05-06 08:13 | 55.87521 | 37.11539 | 6866 ft | 246 kts | 248° |
| 2026-05-06 08:14 | 55.86853 | 37.08735 | 6863 ft | 245 kts | 251° |
| 2026-05-06 08:14 | 55.86539 | 37.05762 | 6866 ft | 246 kts | 269° |
| 2026-05-06 08:14 | 55.86832 | 37.02717 | 7338 ft | 254 kts | 284° |
| 2026-05-06 08:14 | 55.87349 | 36.99698 | 7752 ft | 254 kts | 283° |
| 2026-05-06 08:15 | 55.87841 | 36.96702 | 7849 ft | 251 kts | 283° |
| 2026-05-06 08:15 | 55.88323 | 36.93712 | 7861 ft | 250 kts | 283° |
| 2026-05-06 08:15 | 55.88803 | 36.90735 | 7863 ft | 250 kts | 283° |
| 2026-05-06 08:15 | 55.89279 | 36.87756 | 7872 ft | 250 kts | 283° |
| 2026-05-06 08:16 | 55.89760 | 36.84772 | 7867 ft | 250 kts | 283° |
| 2026-05-06 08:16 | 55.90243 | 36.81786 | 7865 ft | 251 kts | 283° |
| 2026-05-06 08:16 | 55.90720 | 36.78836 | 7865 ft | 251 kts | 283° |
| 2026-05-06 08:16 | 55.91000 | 36.75791 | 7875 ft | 249 kts | 269° |
| 2026-05-06 08:17 | 55.90773 | 36.72723 | 8226 ft | 253 kts | 256° |
| 2026-05-06 08:17 | 55.90331 | 36.69702 | 9054 ft | 251 kts | 257° |
| 2026-05-06 08:17 | 55.89908 | 36.66677 | 9797 ft | 252 kts | 257° |
| 2026-05-06 08:17 | 55.89484 | 36.63624 | 10419 ft | 255 kts | 257° |
| 2026-05-06 08:18 | 55.89058 | 36.60548 | 11040 ft | 258 kts | 257° |
| 2026-05-06 08:18 | 55.88622 | 36.57421 | 11676 ft | 261 kts | 257° |
| 2026-05-06 08:18 | 55.88179 | 36.54266 | 12308 ft | 264 kts | 257° |
| 2026-05-06 08:18 | 55.87719 | 36.51075 | 12777 ft | 269 kts | 253° |
| 2026-05-06 08:19 | 55.86771 | 36.48203 | 12871 ft | 276 kts | 227° |
| 2026-05-06 08:19 | 55.85085 | 36.46480 | 12874 ft | 289 kts | 200° |
| 2026-05-06 08:19 | 55.83034 | 36.46401 | 12878 ft | 304 kts | 178° |
| 2026-05-06 08:19 | 55.80938 | 36.46972 | 12873 ft | 305 kts | 178° |
| 2026-05-06 08:20 | 55.78843 | 36.47578 | 12852 ft | 306 kts | 177° |
| 2026-05-06 08:20 | 55.76744 | 36.48191 | 12871 ft | 306 kts | 177° |
| 2026-05-06 08:20 | 55.74637 | 36.48802 | 13049 ft | 308 kts | 177° |
| 2026-05-06 08:20 | 55.72514 | 36.49404 | 13684 ft | 311 kts | 178° |
| 2026-05-06 08:21 | 55.70376 | 36.49992 | 13834 ft | 310 kts | 178° |
| 2026-05-06 08:21 | 55.68243 | 36.50572 | 13871 ft | 310 kts | 178° |
| 2026-05-06 08:21 | 55.66114 | 36.51150 | 13860 ft | 310 kts | 178° |
| 2026-05-06 08:21 | 55.63984 | 36.51728 | 13866 ft | 309 kts | 177° |
| 2026-05-06 08:22 | 55.61898 | 36.52303 | 13871 ft | 307 kts | 177° |
| 2026-05-06 08:22 | 55.59790 | 36.52884 | 13872 ft | 308 kts | 177° |
| 2026-05-06 08:22 | 55.57606 | 36.53480 | 13999 ft | 326 kts | 177° |
| 2026-05-06 08:22 | 55.55338 | 36.54099 | 14442 ft | 332 kts | 176° |
| 2026-05-06 08:23 | 55.53037 | 36.54732 | 14958 ft | 336 kts | 176° |
| 2026-05-06 08:23 | 55.50713 | 36.55371 | 15493 ft | 339 kts | 176° |
| 2026-05-06 08:23 | 55.48367 | 36.56024 | 16032 ft | 342 kts | 176° |
| 2026-05-06 08:23 | 55.46005 | 36.56681 | 16564 ft | 345 kts | 176° |
| 2026-05-06 08:24 | 55.43617 | 36.57342 | 16830 ft | 348 kts | 176° |
| 2026-05-06 08:24 | 55.41229 | 36.57997 | 16859 ft | 348 kts | 176° |
| 2026-05-06 08:24 | 55.38841 | 36.58658 | 16864 ft | 348 kts | 176° |
| 2026-05-06 08:24 | 55.36445 | 36.59322 | 16861 ft | 348 kts | 176° |
| 2026-05-06 08:25 | 55.34053 | 36.59978 | 16867 ft | 348 kts | 176° |
| 2026-05-06 08:25 | 55.31663 | 36.60626 | 16871 ft | 348 kts | 176° |
| 2026-05-06 08:25 | 55.29275 | 36.61272 | 16874 ft | 347 kts | 176° |
| 2026-05-06 08:25 | 55.26887 | 36.61971 | 16859 ft | 349 kts | 171° |
| 2026-05-06 08:26 | 55.24558 | 36.63327 | 17097 ft | 357 kts | 162° |
| 2026-05-06 08:26 | 55.22244 | 36.64927 | 17670 ft | 359 kts | 163° |
| 2026-05-06 08:26 | 55.19942 | 36.66490 | 17848 ft | 360 kts | 163° |
| 2026-05-06 08:26 | 55.17607 | 36.68062 | 17871 ft | 359 kts | 163° |
| 2026-05-06 08:27 | 55.15275 | 36.69630 | 17871 ft | 359 kts | 163° |
| 2026-05-06 08:27 | 55.12944 | 36.71198 | 17871 ft | 359 kts | 163° |
| 2026-05-06 08:27 | 55.10615 | 36.72766 | 17871 ft | 359 kts | 163° |
| 2026-05-06 08:27 | 55.08276 | 36.74328 | 17870 ft | 359 kts | 165° |
| 2026-05-06 08:28 | 55.05876 | 36.75334 | 17870 ft | 352 kts | 178° |
| 2026-05-06 08:28 | 55.03414 | 36.75422 | 17927 ft | 359 kts | 189° |
| 2026-05-06 08:28 | 55.00888 | 36.74923 | 18071 ft | 373 kts | 191° |
| 2026-05-06 08:28 | 54.98263 | 36.74400 | 18206 ft | 385 kts | 190° |
| 2026-05-06 08:29 | 54.95559 | 36.73880 | 18324 ft | 397 kts | 190° |
| 2026-05-06 08:29 | 54.92777 | 36.73356 | 18452 ft | 407 kts | 189° |
| 2026-05-06 08:29 | 54.89930 | 36.72825 | 18575 ft | 416 kts | 189° |
| 2026-05-06 08:29 | 54.87018 | 36.72280 | 18687 ft | 426 kts | 189° |
| 2026-05-06 08:30 | 54.84052 | 36.71640 | 18849 ft | 431 kts | 193° |
| 2026-05-06 08:30 | 54.81157 | 36.70310 | 19137 ft | 431 kts | 202° |
| 2026-05-06 08:30 | 54.78378 | 36.68379 | 19459 ft | 432 kts | 205° |
| 2026-05-06 08:30 | 54.75611 | 36.66312 | 19787 ft | 433 kts | 210° |
| 2026-05-06 08:31 | 54.73039 | 36.63621 | 20110 ft | 433 kts | 218° |
| 2026-05-06 08:31 | 54.70756 | 36.60238 | 20442 ft | 432 kts | 227° |
| 2026-05-06 08:31 | 54.68693 | 36.56536 | 20774 ft | 434 kts | 228° |
| 2026-05-06 08:31 | 54.66586 | 36.52775 | 21110 ft | 437 kts | 228° |
| 2026-05-06 08:32 | 54.64433 | 36.48961 | 21449 ft | 439 kts | 228° |
| 2026-05-06 08:32 | 54.62322 | 36.45236 | 21776 ft | 441 kts | 227° |
| 2026-05-06 08:32 | 54.60167 | 36.41444 | 22100 ft | 443 kts | 227° |
| 2026-05-06 08:32 | 54.58006 | 36.37643 | 22424 ft | 445 kts | 227° |
| 2026-05-06 08:33 | 54.55833 | 36.33818 | 22725 ft | 448 kts | 227° |
| 2026-05-06 08:33 | 54.53648 | 36.29975 | 22993 ft | 450 kts | 227° |
| 2026-05-06 08:33 | 54.51451 | 36.26115 | 23250 ft | 452 kts | 227° |
| 2026-05-06 08:33 | 54.49237 | 36.22237 | 23509 ft | 454 kts | 227° |
| 2026-05-06 08:34 | 54.47018 | 36.18350 | 23733 ft | 456 kts | 227° |
| 2026-05-06 08:34 | 54.42564 | 36.10549 | 24145 ft | 459 kts | 227° |
| 2026-05-06 08:34 | 54.40320 | 36.06639 | 24330 ft | 460 kts | 227° |
| 2026-05-06 08:35 | 54.38068 | 36.02731 | 24562 ft | 461 kts | 227° |
| 2026-05-06 08:35 | 54.35813 | 35.98833 | 24834 ft | 460 kts | 227° |
| 2026-05-06 08:35 | 54.33559 | 35.94947 | 25091 ft | 460 kts | 227° |
| 2026-05-06 08:35 | 54.31301 | 35.91053 | 25345 ft | 459 kts | 227° |
| 2026-05-06 08:36 | 54.29054 | 35.87170 | 25608 ft | 459 kts | 227° |
| 2026-05-06 08:36 | 54.26810 | 35.83298 | 25890 ft | 459 kts | 227° |
| 2026-05-06 08:36 | 54.25321 | 35.80728 | 26078 ft | 458 kts | 227° |
| 2026-05-06 08:36 | 54.22321 | 35.75558 | 26463 ft | 457 kts | 227° |
| 2026-05-06 08:37 | 54.20078 | 35.71713 | 26745 ft | 456 kts | 227° |
| 2026-05-06 08:37 | 54.18593 | 35.69171 | 26933 ft | 456 kts | 227° |
| 2026-05-06 08:37 | 54.15568 | 35.64181 | 27302 ft | 456 kts | 225° |
| 2026-05-06 08:37 | 54.13222 | 35.60544 | 27572 ft | 457 kts | 224° |
| 2026-05-06 08:38 | 54.10839 | 35.56961 | 27863 ft | 456 kts | 223° |
| 2026-05-06 08:38 | 54.09223 | 35.54561 | 28067 ft | 456 kts | 223° |
| 2026-05-06 08:38 | 54.06836 | 35.51016 | 28360 ft | 455 kts | 223° |
| 2026-05-06 08:38 | 54.04457 | 35.47459 | 28643 ft | 455 kts | 224° |
| 2026-05-06 08:39 | 54.02091 | 35.43891 | 28931 ft | 454 kts | 224° |
| 2026-05-06 08:39 | 53.99682 | 35.40431 | 29231 ft | 455 kts | 218° |
| 2026-05-06 08:39 | 53.97007 | 35.37677 | 29515 ft | 457 kts | 208° |
| 2026-05-06 08:39 | 53.94026 | 35.35755 | 29777 ft | 460 kts | 197° |
| 2026-05-06 08:40 | 53.90864 | 35.34808 | 30037 ft | 464 kts | 186° |
| 2026-05-06 08:40 | 53.87627 | 35.34889 | 30276 ft | 467 kts | 176° |
| 2026-05-06 08:40 | 53.84396 | 35.35396 | 30524 ft | 466 kts | 177° |
| 2026-05-06 08:40 | 53.81172 | 35.35882 | 30777 ft | 465 kts | 177° |
| 2026-05-06 08:41 | 53.77947 | 35.36350 | 31033 ft | 464 kts | 177° |
| 2026-05-06 08:41 | 53.74733 | 35.36811 | 31305 ft | 463 kts | 178° |
| 2026-05-06 08:41 | 53.71520 | 35.37266 | 31545 ft | 463 kts | 177° |
| 2026-05-06 08:41 | 53.68314 | 35.37724 | 31800 ft | 462 kts | 177° |
| 2026-05-06 08:42 | 53.65117 | 35.38180 | 32059 ft | 461 kts | 177° |
| 2026-05-06 08:42 | 53.61919 | 35.38639 | 32305 ft | 461 kts | 177° |
| 2026-05-06 08:42 | 53.58727 | 35.39098 | 32562 ft | 460 kts | 177° |
| 2026-05-06 08:42 | 53.55544 | 35.39557 | 32823 ft | 459 kts | 177° |
| 2026-05-06 08:43 | 53.52369 | 35.40016 | 33075 ft | 458 kts | 177° |
| 2026-05-06 08:43 | 53.49199 | 35.40473 | 33329 ft | 457 kts | 177° |
| 2026-05-06 08:43 | 53.46030 | 35.40926 | 33579 ft | 456 kts | 177° |
| 2026-05-06 08:43 | 53.42869 | 35.41373 | 33829 ft | 456 kts | 177° |
| 2026-05-06 08:44 | 53.39717 | 35.41819 | 34047 ft | 455 kts | 177° |
| 2026-05-06 08:44 | 53.36563 | 35.42263 | 34254 ft | 454 kts | 177° |
| 2026-05-06 08:44 | 53.33415 | 35.42690 | 34443 ft | 454 kts | 177° |
| 2026-05-06 08:44 | 53.30266 | 35.43103 | 34641 ft | 453 kts | 178° |
| 2026-05-06 08:45 | 53.27123 | 35.43505 | 34815 ft | 453 kts | 178° |
| 2026-05-06 08:45 | 53.20811 | 35.44304 | 34905 ft | 457 kts | 177° |
| 2026-05-06 08:46 | 53.14467 | 35.45116 | 34906 ft | 457 kts | 177° |
| 2026-05-06 08:46 | 53.08120 | 35.45927 | 34909 ft | 458 kts | 177° |
| 2026-05-06 08:47 | 53.01768 | 35.46739 | 34906 ft | 457 kts | 177° |
| 2026-05-06 08:47 | 52.95418 | 35.47549 | 34917 ft | 458 kts | 177° |
| 2026-05-06 08:48 | 52.89056 | 35.48366 | 34924 ft | 459 kts | 177° |
| 2026-05-06 08:48 | 52.82681 | 35.49174 | 34928 ft | 460 kts | 177° |
| 2026-05-06 08:49 | 52.76297 | 35.49984 | 34936 ft | 460 kts | 176° |
| 2026-05-06 08:49 | 52.69907 | 35.50795 | 34931 ft | 461 kts | 176° |
| 2026-05-06 08:50 | 52.63504 | 35.51463 | 34939 ft | 461 kts | 178° |
| 2026-05-06 08:50 | 52.57093 | 35.51947 | 34942 ft | 461 kts | 179° |
| 2026-05-06 08:51 | 52.50668 | 35.52425 | 34950 ft | 462 kts | 178° |
| 2026-05-06 08:51 | 52.44243 | 35.52963 | 34947 ft | 463 kts | 179° |
| 2026-05-06 08:52 | 52.37812 | 35.53520 | 34936 ft | 463 kts | 178° |
| 2026-05-06 08:52 | 52.31376 | 35.54079 | 34952 ft | 463 kts | 178° |
| 2026-05-06 08:53 | 52.24939 | 35.54621 | 34947 ft | 463 kts | 178° |
| 2026-05-06 08:53 | 52.18502 | 35.55149 | 34961 ft | 463 kts | 178° |
| 2026-05-06 08:54 | 52.12064 | 35.55688 | 34959 ft | 464 kts | 178° |
| 2026-05-06 08:54 | 52.05616 | 35.56231 | 34964 ft | 464 kts | 178° |
| 2026-05-06 08:55 | 51.99158 | 35.56758 | 34960 ft | 464 kts | 178° |
| 2026-05-06 08:55 | 51.92697 | 35.57295 | 34963 ft | 466 kts | 178° |
| 2026-05-06 08:56 | 51.86256 | 35.57840 | 34973 ft | 466 kts | 178° |
| 2026-05-06 08:56 | 51.79770 | 35.58367 | 34973 ft | 466 kts | 178° |
| 2026-05-06 08:57 | 51.73286 | 35.58894 | 34980 ft | 466 kts | 177° |
| 2026-05-06 08:57 | 51.66822 | 35.59415 | 34982 ft | 465 kts | 178° |
| 2026-05-06 08:58 | 51.60359 | 35.59944 | 34978 ft | 465 kts | 178° |
| 2026-05-06 08:58 | 51.53897 | 35.60478 | 34984 ft | 465 kts | 178° |
| 2026-05-06 08:59 | 51.47425 | 35.61003 | 34981 ft | 465 kts | 177° |
| 2026-05-06 08:59 | 51.40952 | 35.61530 | 34977 ft | 466 kts | 177° |
| 2026-05-06 09:00 | 51.34480 | 35.62055 | 34984 ft | 465 kts | 177° |
| 2026-05-06 09:00 | 51.28008 | 35.62571 | 34988 ft | 466 kts | 177° |
| 2026-05-06 09:01 | 51.21538 | 35.63084 | 34987 ft | 465 kts | 177° |
| 2026-05-06 09:01 | 51.15071 | 35.63597 | 34988 ft | 465 kts | 176° |
| 2026-05-06 09:02 | 51.08597 | 35.64117 | 34986 ft | 466 kts | 177° |
| 2026-05-06 09:02 | 51.02123 | 35.64631 | 34984 ft | 466 kts | 176° |
| 2026-05-06 09:03 | 50.95631 | 35.65143 | 34985 ft | 467 kts | 177° |
| 2026-05-06 09:03 | 50.89137 | 35.65657 | 34995 ft | 467 kts | 176° |
| 2026-05-06 09:04 | 50.82647 | 35.66164 | 35006 ft | 467 kts | 176° |
| 2026-05-06 09:04 | 50.76161 | 35.66675 | 35010 ft | 466 kts | 176° |
| 2026-05-06 09:05 | 50.69679 | 35.67177 | 35010 ft | 467 kts | 176° |
| 2026-05-06 09:05 | 50.63190 | 35.67683 | 35010 ft | 467 kts | 176° |
| 2026-05-06 09:06 | 50.56699 | 35.68202 | 35007 ft | 467 kts | 176° |
| 2026-05-06 09:06 | 50.50201 | 35.68704 | 35018 ft | 468 kts | 176° |
| 2026-05-06 09:07 | 50.43700 | 35.69192 | 35019 ft | 467 kts | 176° |
| 2026-05-06 09:07 | 50.37255 | 35.69783 | 35024 ft | 466 kts | 171° |
| 2026-05-06 09:08 | 50.30991 | 35.72437 | 35020 ft | 464 kts | 158° |
| 2026-05-06 09:08 | 50.24977 | 35.75917 | 35026 ft | 464 kts | 159° |
| 2026-05-06 09:09 | 50.18912 | 35.79395 | 35028 ft | 464 kts | 159° |
| 2026-05-06 09:09 | 50.12846 | 35.82855 | 35030 ft | 464 kts | 159° |
| 2026-05-06 09:10 | 50.06787 | 35.86316 | 35030 ft | 464 kts | 159° |
| 2026-05-06 09:10 | 50.00724 | 35.89777 | 35032 ft | 464 kts | 159° |
| 2026-05-06 09:11 | 49.94660 | 35.93226 | 35042 ft | 464 kts | 159° |
| 2026-05-06 09:11 | 49.88592 | 35.96666 | 35035 ft | 465 kts | 159° |
| 2026-05-06 09:12 | 49.82519 | 36.00091 | 35043 ft | 464 kts | 159° |
| 2026-05-06 09:12 | 49.76452 | 36.03506 | 35045 ft | 464 kts | 159° |
| 2026-05-06 09:13 | 49.70388 | 36.06913 | 35040 ft | 464 kts | 159° |
| 2026-05-06 09:13 | 49.64325 | 36.10314 | 35048 ft | 463 kts | 160° |
| 2026-05-06 09:14 | 49.58267 | 36.13701 | 35040 ft | 464 kts | 160° |
| 2026-05-06 09:14 | 49.52200 | 36.17082 | 35045 ft | 464 kts | 160° |
| 2026-05-06 09:15 | 49.46135 | 36.20455 | 35047 ft | 463 kts | 160° |
| 2026-05-06 09:15 | 49.40063 | 36.23817 | 35043 ft | 464 kts | 160° |
| 2026-05-06 09:16 | 49.33987 | 36.27180 | 35045 ft | 464 kts | 159° |
| 2026-05-06 09:16 | 49.27902 | 36.30541 | 35058 ft | 465 kts | 159° |
| 2026-05-06 09:17 | 49.21817 | 36.33892 | 35061 ft | 465 kts | 159° |
| 2026-05-06 09:17 | 49.15731 | 36.37238 | 35052 ft | 465 kts | 159° |
| 2026-05-06 09:18 | 49.09641 | 36.40566 | 35057 ft | 465 kts | 159° |
| 2026-05-06 09:18 | 49.03550 | 36.43886 | 35058 ft | 465 kts | 159° |
| 2026-05-06 09:19 | 48.97499 | 36.47172 | 35072 ft | 464 kts | 159° |
| 2026-05-06 09:19 | 48.91414 | 36.50471 | 35068 ft | 464 kts | 159° |
| 2026-05-06 09:20 | 48.85351 | 36.53829 | 35078 ft | 463 kts | 157° |
| 2026-05-06 09:20 | 48.79409 | 36.57586 | 35074 ft | 462 kts | 155° |
| 2026-05-06 09:21 | 48.73511 | 36.61479 | 35074 ft | 462 kts | 155° |
| 2026-05-06 09:21 | 48.67586 | 36.65292 | 35073 ft | 462 kts | 156° |
| 2026-05-06 09:22 | 48.61650 | 36.69022 | 35073 ft | 462 kts | 156° |
| 2026-05-06 09:22 | 48.56671 | 36.72119 | 35081 ft | 461 kts | 156° |
| 2026-05-06 09:23 | 48.50748 | 36.75819 | 35075 ft | 460 kts | 156° |
| 2026-05-06 09:23 | 48.44863 | 36.79495 | 35076 ft | 461 kts | 155° |
| 2026-05-06 09:24 | 48.38946 | 36.83194 | 35079 ft | 461 kts | 156° |
| 2026-05-06 09:24 | 48.33024 | 36.86878 | 35089 ft | 461 kts | 155° |
| 2026-05-06 09:25 | 48.27096 | 36.90552 | 35080 ft | 461 kts | 155° |
| 2026-05-06 09:25 | 48.21161 | 36.94222 | 35083 ft | 461 kts | 155° |
| 2026-05-06 09:26 | 48.15238 | 36.97866 | 35083 ft | 460 kts | 155° |
| 2026-05-06 09:26 | 48.09319 | 37.01515 | 35091 ft | 460 kts | 155° |
| 2026-05-06 09:27 | 48.03395 | 37.05154 | 35088 ft | 461 kts | 155° |
| 2026-05-06 09:27 | 47.97467 | 37.08787 | 35085 ft | 461 kts | 155° |
| 2026-05-06 09:28 | 47.91522 | 37.12412 | 35090 ft | 462 kts | 155° |
| 2026-05-06 09:28 | 47.85579 | 37.16030 | 35092 ft | 461 kts | 155° |
| 2026-05-06 09:29 | 47.79633 | 37.19644 | 35095 ft | 462 kts | 155° |
| 2026-05-06 09:29 | 47.73537 | 37.22690 | 35098 ft | 466 kts | 167° |
| 2026-05-06 09:30 | 47.67074 | 37.23955 | 35097 ft | 469 kts | 171° |
| 2026-05-06 09:30 | 47.60641 | 37.25135 | 35107 ft | 469 kts | 170° |
| 2026-05-06 09:31 | 47.54165 | 37.26325 | 35118 ft | 469 kts | 170° |
| 2026-05-06 09:31 | 47.47696 | 37.27510 | 35108 ft | 469 kts | 170° |
| 2026-05-06 09:32 | 47.41222 | 37.28688 | 35112 ft | 468 kts | 170° |
| 2026-05-06 09:32 | 47.34752 | 37.29854 | 35105 ft | 469 kts | 170° |
| 2026-05-06 09:33 | 47.28274 | 37.31015 | 35107 ft | 468 kts | 169° |
| 2026-05-06 09:33 | 47.21802 | 37.32194 | 35120 ft | 469 kts | 169° |
| 2026-05-06 09:34 | 47.15325 | 37.33355 | 35107 ft | 469 kts | 169° |
| 2026-05-06 09:34 | 47.08852 | 37.34517 | 35109 ft | 469 kts | 169° |
| 2026-05-06 09:35 | 47.02375 | 37.35679 | 35110 ft | 469 kts | 169° |
| 2026-05-06 09:35 | 46.95886 | 37.36832 | 35130 ft | 469 kts | 169° |
| 2026-05-06 09:36 | 46.89396 | 37.37977 | 35120 ft | 469 kts | 169° |
| 2026-05-06 09:36 | 46.82957 | 37.39124 | 35122 ft | 470 kts | 169° |
| 2026-05-06 09:37 | 46.76465 | 37.40285 | 35127 ft | 470 kts | 169° |
| 2026-05-06 09:37 | 46.69973 | 37.41438 | 35125 ft | 470 kts | 169° |
| 2026-05-06 09:38 | 46.63443 | 37.42037 | 35131 ft | 474 kts | 179° |
| 2026-05-06 09:38 | 46.56848 | 37.41599 | 35126 ft | 475 kts | 179° |
| 2026-05-06 09:39 | 46.50250 | 37.41178 | 35129 ft | 475 kts | 179° |
| 2026-05-06 09:39 | 46.43662 | 37.40772 | 35122 ft | 475 kts | 179° |
| 2026-05-06 09:40 | 46.37060 | 37.40353 | 35120 ft | 475 kts | 179° |
| 2026-05-06 09:40 | 46.27151 | 37.39730 | 35131 ft | 475 kts | 179° |
| 2026-05-06 09:41 | 46.20537 | 37.39324 | 35130 ft | 476 kts | 179° |
| 2026-05-06 09:41 | 46.13925 | 37.38918 | 35128 ft | 476 kts | 179° |
| 2026-05-06 09:42 | 46.07304 | 37.38513 | 35124 ft | 476 kts | 179° |
| 2026-05-06 09:42 | 46.00682 | 37.38101 | 35137 ft | 476 kts | 179° |
| 2026-05-06 09:43 | 45.94062 | 37.37681 | 35140 ft | 475 kts | 179° |
| 2026-05-06 09:43 | 45.87460 | 37.37268 | 35137 ft | 475 kts | 179° |
| 2026-05-06 09:44 | 45.80906 | 37.36866 | 35133 ft | 475 kts | 179° |
| 2026-05-06 09:44 | 45.74309 | 37.36463 | 35140 ft | 474 kts | 179° |
| 2026-05-06 09:45 | 45.67722 | 37.36123 | 35131 ft | 473 kts | 178° |
| 2026-05-06 09:45 | 45.61140 | 37.35842 | 35129 ft | 473 kts | 178° |
| 2026-05-06 09:46 | 45.54564 | 37.35563 | 35128 ft | 473 kts | 178° |
| 2026-05-06 09:46 | 45.47989 | 37.35274 | 35130 ft | 472 kts | 178° |
| 2026-05-06 09:47 | 45.41423 | 37.34977 | 35129 ft | 472 kts | 178° |
| 2026-05-06 09:47 | 45.34862 | 37.34737 | 35133 ft | 471 kts | 177° |
| 2026-05-06 09:48 | 45.28351 | 37.34715 | 35147 ft | 471 kts | 177° |
| 2026-05-06 09:48 | 45.21804 | 37.34761 | 35143 ft | 470 kts | 177° |
| 2026-05-06 09:49 | 45.15266 | 37.34776 | 35140 ft | 470 kts | 177° |
| 2026-05-06 09:49 | 45.08723 | 37.34758 | 35141 ft | 470 kts | 178° |
| 2026-05-06 09:50 | 45.02180 | 37.34731 | 35144 ft | 470 kts | 178° |
| 2026-05-06 09:50 | 44.95667 | 37.33778 | 35282 ft | 471 kts | 186° |
| 2026-05-06 09:51 | 44.92441 | 37.33097 | 35545 ft | 468 kts | 186° |
| 2026-05-06 09:51 | 44.89220 | 37.32423 | 35765 ft | 467 kts | 186° |
| 2026-05-06 09:51 | 44.85998 | 37.31752 | 35950 ft | 467 kts | 186° |
| 2026-05-06 09:51 | 44.82784 | 37.31088 | 36101 ft | 467 kts | 187° |
| 2026-05-06 09:52 | 44.76341 | 37.29758 | 36114 ft | 467 kts | 186° |
| 2026-05-06 09:52 | 44.69912 | 37.28431 | 36114 ft | 467 kts | 186° |
| 2026-05-06 09:53 | 44.63488 | 37.27109 | 36123 ft | 467 kts | 186° |
| 2026-05-06 09:53 | 44.57106 | 37.25800 | 36113 ft | 466 kts | 186° |
| 2026-05-06 09:54 | 44.50684 | 37.24476 | 36120 ft | 467 kts | 186° |
| 2026-05-06 09:54 | 44.44324 | 37.23148 | 36133 ft | 468 kts | 187° |
| 2026-05-06 09:55 | 44.37882 | 37.21810 | 36140 ft | 468 kts | 186° |
| 2026-05-06 09:55 | 44.31433 | 37.20473 | 36141 ft | 468 kts | 186° |
| 2026-05-06 09:56 | 44.24984 | 37.19134 | 36147 ft | 468 kts | 187° |
| 2026-05-06 09:56 | 44.18528 | 37.17796 | 36146 ft | 469 kts | 186° |
| 2026-05-06 09:57 | 44.12073 | 37.16479 | 36152 ft | 469 kts | 186° |
| 2026-05-06 09:57 | 44.05590 | 37.15519 | 36147 ft | 468 kts | 182° |
| 2026-05-06 09:58 | 43.99134 | 37.14904 | 36146 ft | 468 kts | 182° |
| 2026-05-06 09:58 | 43.92651 | 37.14055 | 36155 ft | 469 kts | 186° |
| 2026-05-06 09:59 | 43.86196 | 37.12736 | 36154 ft | 469 kts | 187° |
| 2026-05-06 09:59 | 43.79753 | 37.11338 | 36152 ft | 468 kts | 187° |
| 2026-05-06 10:00 | 43.73300 | 37.10063 | 36160 ft | 468 kts | 186° |
| 2026-05-06 10:00 | 43.66837 | 37.08866 | 36158 ft | 468 kts | 186° |
| 2026-05-06 10:01 | 43.60378 | 37.07653 | 36158 ft | 468 kts | 186° |
| 2026-05-06 10:01 | 43.53924 | 37.06419 | 36157 ft | 468 kts | 186° |
| 2026-05-06 10:02 | 43.47479 | 37.05182 | 36161 ft | 468 kts | 186° |
| 2026-05-06 10:02 | 43.41032 | 37.03952 | 36159 ft | 467 kts | 186° |
| 2026-05-06 10:03 | 43.34599 | 37.02742 | 36166 ft | 467 kts | 186° |
| 2026-05-06 10:03 | 43.28166 | 37.01533 | 36165 ft | 467 kts | 186° |
| 2026-05-06 10:04 | 43.21732 | 37.00329 | 36160 ft | 466 kts | 187° |
| 2026-05-06 10:04 | 43.15303 | 36.99123 | 36169 ft | 466 kts | 187° |
| 2026-05-06 10:05 | 43.08880 | 36.97950 | 36167 ft | 465 kts | 186° |
| 2026-05-06 10:05 | 43.02453 | 36.96853 | 36164 ft | 465 kts | 186° |
| 2026-05-06 10:06 | 42.96027 | 36.95773 | 36166 ft | 465 kts | 186° |
| 2026-05-06 10:06 | 42.89603 | 36.94683 | 36172 ft | 465 kts | 186° |
| 2026-05-06 10:07 | 42.83221 | 36.93580 | 36167 ft | 465 kts | 186° |
| 2026-05-06 10:07 | 42.76808 | 36.92083 | 36167 ft | 466 kts | 197° |
| 2026-05-06 10:08 | 42.73866 | 36.90372 | 36160 ft | 467 kts | 208° |
| 2026-05-06 10:08 | 42.71185 | 36.87883 | 36161 ft | 468 kts | 220° |
| 2026-05-06 10:08 | 42.68907 | 36.84731 | 36157 ft | 469 kts | 231° |
| 2026-05-06 10:08 | 42.67113 | 36.81029 | 36157 ft | 470 kts | 242° |
| 2026-05-06 10:09 | 42.64222 | 36.73065 | 36157 ft | 470 kts | 243° |
| 2026-05-06 10:09 | 42.61313 | 36.65098 | 36158 ft | 471 kts | 243° |
| 2026-05-06 10:10 | 42.58867 | 36.58429 | 36163 ft | 471 kts | 243° |
| 2026-05-06 10:10 | 42.55475 | 36.49163 | 36167 ft | 472 kts | 243° |
| 2026-05-06 10:11 | 42.53021 | 36.42485 | 36163 ft | 472 kts | 243° |
| 2026-05-06 10:11 | 42.50090 | 36.34523 | 36165 ft | 472 kts | 243° |
| 2026-05-06 10:12 | 42.47147 | 36.26573 | 36166 ft | 472 kts | 243° |
| 2026-05-06 10:12 | 42.44203 | 36.18620 | 36165 ft | 472 kts | 243° |
| 2026-05-06 10:13 | 42.41275 | 36.10720 | 36170 ft | 473 kts | 243° |
| 2026-05-06 10:13 | 42.38315 | 36.02775 | 36163 ft | 473 kts | 243° |
| 2026-05-06 10:14 | 42.35345 | 35.94837 | 36163 ft | 473 kts | 243° |
| 2026-05-06 10:14 | 42.32381 | 35.86908 | 36160 ft | 473 kts | 243° |
| 2026-05-06 10:15 | 42.29413 | 35.78988 | 36156 ft | 472 kts | 243° |
| 2026-05-06 10:15 | 42.26428 | 35.71089 | 36160 ft | 472 kts | 243° |
| 2026-05-06 10:16 | 42.23443 | 35.63203 | 36174 ft | 472 kts | 243° |
| 2026-05-06 10:16 | 42.20466 | 35.55330 | 36174 ft | 471 kts | 243° |
| 2026-05-06 10:17 | 42.17486 | 35.47452 | 36161 ft | 471 kts | 243° |
| 2026-05-06 10:17 | 42.14487 | 35.39584 | 36167 ft | 472 kts | 243° |
| 2026-05-06 10:18 | 42.11496 | 35.31730 | 36164 ft | 471 kts | 243° |
| 2026-05-06 10:18 | 42.08513 | 35.23875 | 36161 ft | 471 kts | 243° |
| 2026-05-06 10:19 | 42.05520 | 35.16034 | 36161 ft | 471 kts | 243° |
| 2026-05-06 10:19 | 42.02281 | 35.08379 | 36149 ft | 472 kts | 233° |
| 2026-05-06 10:20 | 41.97695 | 35.02077 | 36150 ft | 473 kts | 222° |
| 2026-05-06 10:20 | 41.92812 | 34.96239 | 36145 ft | 473 kts | 222° |
| 2026-05-06 10:21 | 41.87905 | 34.90355 | 36137 ft | 473 kts | 223° |
| 2026-05-06 10:21 | 41.83001 | 34.84473 | 36144 ft | 473 kts | 223° |
| 2026-05-06 10:22 | 41.78089 | 34.78608 | 36135 ft | 473 kts | 223° |
| 2026-05-06 10:22 | 41.73168 | 34.72763 | 36126 ft | 473 kts | 223° |
| 2026-05-06 10:23 | 41.68239 | 34.66924 | 36123 ft | 473 kts | 223° |
| 2026-05-06 10:23 | 41.63319 | 34.61091 | 36119 ft | 472 kts | 223° |
| 2026-05-06 10:24 | 41.58404 | 34.55274 | 36109 ft | 472 kts | 223° |
| 2026-05-06 10:24 | 41.53492 | 34.49451 | 36111 ft | 472 kts | 223° |
| 2026-05-06 10:25 | 41.48591 | 34.43613 | 36106 ft | 472 kts | 223° |
| 2026-05-06 10:25 | 41.43687 | 34.37792 | 36103 ft | 472 kts | 223° |
| 2026-05-06 10:26 | 41.38785 | 34.31992 | 36109 ft | 471 kts | 223° |
| 2026-05-06 10:26 | 41.33898 | 34.26238 | 36111 ft | 472 kts | 223° |
| 2026-05-06 10:27 | 41.28979 | 34.20456 | 36116 ft | 472 kts | 223° |
| 2026-05-06 10:27 | 41.24056 | 34.14684 | 36118 ft | 471 kts | 223° |
| 2026-05-06 10:28 | 41.19139 | 34.08937 | 36112 ft | 471 kts | 223° |
| 2026-05-06 10:28 | 41.14226 | 34.03196 | 36106 ft | 470 kts | 223° |
| 2026-05-06 10:29 | 41.09307 | 33.97466 | 36111 ft | 470 kts | 223° |
| 2026-05-06 10:29 | 41.04383 | 33.91758 | 36116 ft | 470 kts | 223° |
| 2026-05-06 10:30 | 40.99491 | 33.86093 | 36112 ft | 470 kts | 223° |
| 2026-05-06 10:30 | 40.94567 | 33.80393 | 36117 ft | 470 kts | 223° |
| 2026-05-06 10:31 | 40.89644 | 33.74697 | 36108 ft | 471 kts | 223° |
| 2026-05-06 10:31 | 40.84703 | 33.69002 | 36114 ft | 471 kts | 223° |
| 2026-05-06 10:32 | 40.79761 | 33.63328 | 36118 ft | 471 kts | 223° |
| 2026-05-06 10:32 | 40.74814 | 33.57659 | 36105 ft | 471 kts | 224° |
| 2026-05-06 10:33 | 40.69865 | 33.52002 | 36115 ft | 471 kts | 224° |
| 2026-05-06 10:33 | 40.64917 | 33.46347 | 36116 ft | 471 kts | 224° |
| 2026-05-06 10:34 | 40.59969 | 33.40693 | 36105 ft | 471 kts | 224° |
| 2026-05-06 10:34 | 40.55020 | 33.35061 | 36117 ft | 470 kts | 224° |
| 2026-05-06 10:35 | 40.50071 | 33.29443 | 36119 ft | 469 kts | 224° |
| 2026-05-06 10:35 | 40.45157 | 33.23881 | 36107 ft | 469 kts | 224° |
| 2026-05-06 10:36 | 40.40219 | 33.18293 | 36121 ft | 469 kts | 224° |
| 2026-05-06 10:36 | 40.35283 | 33.12711 | 36129 ft | 468 kts | 224° |
| 2026-05-06 10:37 | 40.30344 | 33.07144 | 36115 ft | 468 kts | 225° |
| 2026-05-06 10:37 | 40.25398 | 33.01593 | 36131 ft | 468 kts | 224° |
| 2026-05-06 10:38 | 40.20455 | 32.96041 | 36136 ft | 468 kts | 225° |
| 2026-05-06 10:38 | 40.15516 | 32.90508 | 36121 ft | 468 kts | 225° |
| 2026-05-06 10:39 | 40.10571 | 32.84984 | 36131 ft | 468 kts | 225° |
| 2026-05-06 10:39 | 40.05341 | 32.79887 | 36113 ft | 474 kts | 212° |
| 2026-05-06 10:40 | 39.99465 | 32.75947 | 36107 ft | 475 kts | 211° |
| 2026-05-06 10:40 | 39.93593 | 32.72008 | 36116 ft | 474 kts | 212° |
| 2026-05-06 10:41 | 39.87721 | 32.68055 | 36117 ft | 475 kts | 211° |
| 2026-05-06 10:41 | 39.81841 | 32.64121 | 36120 ft | 475 kts | 211° |
| 2026-05-06 10:42 | 39.75995 | 32.60231 | 36116 ft | 475 kts | 211° |
| 2026-05-06 10:42 | 39.70099 | 32.56312 | 36115 ft | 475 kts | 211° |
| 2026-05-06 10:43 | 39.64214 | 32.52402 | 36124 ft | 475 kts | 211° |
| 2026-05-06 10:44 | 39.55388 | 32.46547 | 36130 ft | 475 kts | 211° |
| 2026-05-06 10:44 | 39.49506 | 32.42661 | 36134 ft | 474 kts | 211° |
| 2026-05-06 10:45 | 39.43623 | 32.38789 | 36140 ft | 474 kts | 211° |
| 2026-05-06 10:45 | 39.37742 | 32.34923 | 36146 ft | 474 kts | 211° |
| 2026-05-06 10:46 | 39.31865 | 32.31077 | 36142 ft | 473 kts | 211° |
| 2026-05-06 10:46 | 39.26039 | 32.27285 | 36144 ft | 472 kts | 211° |
| 2026-05-06 10:47 | 39.20184 | 32.23471 | 36140 ft | 471 kts | 211° |
| 2026-05-06 10:47 | 39.14325 | 32.19676 | 36147 ft | 471 kts | 211° |
| 2026-05-06 10:48 | 39.08471 | 32.15892 | 36140 ft | 471 kts | 211° |
| 2026-05-06 10:48 | 39.02616 | 32.12110 | 36146 ft | 471 kts | 211° |
| 2026-05-06 10:49 | 38.96766 | 32.08334 | 36151 ft | 470 kts | 211° |
| 2026-05-06 10:49 | 38.90917 | 32.04567 | 36141 ft | 470 kts | 210° |
| 2026-05-06 10:50 | 38.85066 | 32.00807 | 36145 ft | 470 kts | 211° |
| 2026-05-06 10:50 | 38.79273 | 31.96959 | 36151 ft | 467 kts | 212° |
| 2026-05-06 10:51 | 38.73503 | 31.93159 | 36133 ft | 467 kts | 210° |
| 2026-05-06 10:51 | 38.67629 | 31.89559 | 36140 ft | 467 kts | 209° |
| 2026-05-06 10:52 | 38.61782 | 31.85932 | 36133 ft | 465 kts | 210° |
| 2026-05-06 10:52 | 38.58921 | 31.84119 | 36041 ft | 452 kts | 210° |
| 2026-05-06 10:52 | 38.56146 | 31.82347 | 35963 ft | 442 kts | 211° |
| 2026-05-06 10:53 | 38.50688 | 31.78848 | 35811 ft | 438 kts | 211° |
| 2026-05-06 10:53 | 38.45282 | 31.75397 | 35661 ft | 436 kts | 210° |
| 2026-05-06 10:54 | 38.39854 | 31.71962 | 35385 ft | 435 kts | 210° |
| 2026-05-06 10:54 | 38.37157 | 31.70258 | 35113 ft | 432 kts | 211° |
| 2026-05-06 10:54 | 38.34471 | 31.68558 | 34808 ft | 430 kts | 210° |
| 2026-05-06 10:54 | 38.31803 | 31.66874 | 34413 ft | 427 kts | 210° |
| 2026-05-06 10:55 | 38.29152 | 31.65201 | 33999 ft | 423 kts | 210° |
| 2026-05-06 10:55 | 38.26524 | 31.63542 | 33530 ft | 420 kts | 210° |
| 2026-05-06 10:55 | 38.23917 | 31.61897 | 33077 ft | 417 kts | 210° |
| 2026-05-06 10:55 | 38.21330 | 31.60264 | 32622 ft | 414 kts | 210° |
| 2026-05-06 10:56 | 38.18757 | 31.58644 | 32179 ft | 412 kts | 210° |
| 2026-05-06 10:56 | 38.16199 | 31.57034 | 31742 ft | 409 kts | 210° |
| 2026-05-06 10:56 | 38.13659 | 31.55440 | 31299 ft | 406 kts | 210° |
| 2026-05-06 10:56 | 38.11179 | 31.53763 | 30892 ft | 400 kts | 217° |
| 2026-05-06 10:57 | 38.08869 | 31.51816 | 30457 ft | 397 kts | 218° |
| 2026-05-06 10:57 | 38.06634 | 31.49787 | 29995 ft | 393 kts | 220° |
| 2026-05-06 10:57 | 38.04449 | 31.47719 | 29483 ft | 389 kts | 220° |
| 2026-05-06 10:57 | 38.02299 | 31.45658 | 28980 ft | 386 kts | 220° |
| 2026-05-06 10:58 | 38.00161 | 31.43615 | 28488 ft | 383 kts | 220° |
| 2026-05-06 10:58 | 37.98029 | 31.41601 | 28001 ft | 381 kts | 220° |
| 2026-05-06 10:58 | 37.95904 | 31.39618 | 27532 ft | 378 kts | 220° |
| 2026-05-06 10:58 | 37.93782 | 31.37657 | 27013 ft | 377 kts | 219° |
| 2026-05-06 10:59 | 37.92380 | 31.36367 | 26658 ft | 376 kts | 219° |
| 2026-05-06 10:59 | 37.89575 | 31.33793 | 25961 ft | 375 kts | 220° |
| 2026-05-06 10:59 | 37.87466 | 31.31855 | 25443 ft | 374 kts | 220° |
| 2026-05-06 10:59 | 37.85362 | 31.29924 | 24938 ft | 373 kts | 220° |
| 2026-05-06 11:00 | 37.83262 | 31.27998 | 24436 ft | 372 kts | 220° |
| 2026-05-06 11:00 | 37.81174 | 31.26081 | 23952 ft | 370 kts | 220° |
| 2026-05-06 11:00 | 37.79092 | 31.24169 | 23416 ft | 369 kts | 219° |
| 2026-05-06 11:00 | 37.77026 | 31.22269 | 22833 ft | 367 kts | 219° |
| 2026-05-06 11:01 | 37.74965 | 31.20374 | 22272 ft | 365 kts | 219° |
| 2026-05-06 11:01 | 37.73606 | 31.19127 | 21906 ft | 364 kts | 219° |
| 2026-05-06 11:01 | 37.71590 | 31.17284 | 21354 ft | 352 kts | 219° |
| 2026-05-06 11:01 | 37.69630 | 31.15496 | 20813 ft | 344 kts | 219° |
| 2026-05-06 11:02 | 37.67701 | 31.13733 | 20300 ft | 343 kts | 219° |
| 2026-05-06 11:02 | 37.65767 | 31.11967 | 19780 ft | 343 kts | 219° |
| 2026-05-06 11:02 | 37.63838 | 31.10204 | 19273 ft | 342 kts | 219° |
| 2026-05-06 11:02 | 37.61911 | 31.08446 | 18767 ft | 341 kts | 219° |
| 2026-05-06 11:03 | 37.59988 | 31.06691 | 18268 ft | 341 kts | 219° |
| 2026-05-06 11:03 | 37.58077 | 31.04952 | 17687 ft | 335 kts | 219° |
| 2026-05-06 11:03 | 37.56211 | 31.03257 | 17140 ft | 327 kts | 219° |
| 2026-05-06 11:03 | 37.54378 | 31.01588 | 16594 ft | 323 kts | 219° |
| 2026-05-06 11:04 | 37.52567 | 30.99939 | 16064 ft | 321 kts | 219° |
| 2026-05-06 11:04 | 37.50765 | 30.98300 | 15542 ft | 317 kts | 219° |
| 2026-05-06 11:04 | 37.48992 | 30.96687 | 15040 ft | 311 kts | 219° |
| 2026-05-06 11:04 | 37.47254 | 30.95103 | 14522 ft | 306 kts | 219° |
| 2026-05-06 11:05 | 37.45542 | 30.93545 | 14022 ft | 302 kts | 219° |
| 2026-05-06 11:05 | 37.43754 | 30.92174 | 13491 ft | 301 kts | 205° |
| 2026-05-06 11:05 | 37.41793 | 30.91301 | 12950 ft | 298 kts | 200° |
| 2026-05-06 11:05 | 37.39836 | 30.90473 | 12407 ft | 296 kts | 200° |
| 2026-05-06 11:06 | 37.37887 | 30.89646 | 11860 ft | 294 kts | 200° |
| 2026-05-06 11:06 | 37.35961 | 30.88824 | 11336 ft | 291 kts | 200° |
| 2026-05-06 11:06 | 37.34060 | 30.88010 | 10821 ft | 288 kts | 200° |
| 2026-05-06 11:06 | 37.32176 | 30.87207 | 10310 ft | 284 kts | 200° |
| 2026-05-06 11:07 | 37.30299 | 30.86490 | 9784 ft | 280 kts | 192° |
| 2026-05-06 11:07 | 37.28401 | 30.86009 | 9227 ft | 277 kts | 192° |
| 2026-05-06 11:07 | 37.26539 | 30.85526 | 8371 ft | 281 kts | 192° |
| 2026-05-06 11:07 | 37.24597 | 30.85016 | 7197 ft | 285 kts | 193° |
| 2026-05-06 11:08 | 37.22707 | 30.84395 | 6092 ft | 277 kts | 198° |
| 2026-05-06 11:08 | 37.20938 | 30.83663 | 5523 ft | 251 kts | 195° |
| 2026-05-06 11:08 | 37.19316 | 30.83289 | 5492 ft | 225 kts | 188° |
| 2026-05-06 11:08 | 37.17761 | 30.83075 | 5272 ft | 233 kts | 187° |
| 2026-05-06 11:09 | 37.16107 | 30.82853 | 4973 ft | 242 kts | 187° |
| 2026-05-06 11:09 | 37.14437 | 30.82626 | 4646 ft | 241 kts | 187° |
| 2026-05-06 11:09 | 37.12775 | 30.82396 | 4338 ft | 240 kts | 186° |
| 2026-05-06 11:09 | 37.11120 | 30.82168 | 4015 ft | 238 kts | 186° |
| 2026-05-06 11:10 | 37.09473 | 30.81940 | 3703 ft | 238 kts | 187° |
| 2026-05-06 11:10 | 37.07839 | 30.81715 | 3389 ft | 236 kts | 186° |
| 2026-05-06 11:10 | 37.06205 | 30.81490 | 3073 ft | 236 kts | 186° |
| 2026-05-06 11:10 | 37.04548 | 30.81264 | 2757 ft | 248 kts | 186° |
| 2026-05-06 11:11 | 37.02872 | 30.81031 | 2455 ft | 233 kts | 186° |
| 2026-05-06 11:11 | 37.01342 | 30.80820 | 2166 ft | 211 kts | 186° |
| 2026-05-06 11:11 | 36.99937 | 30.80626 | 1887 ft | 194 kts | 186° |
| 2026-05-06 11:11 | 36.98668 | 30.80451 | 1641 ft | 172 kts | 186° |
| 2026-05-06 11:12 | 36.97541 | 30.80297 | 1416 ft | 153 kts | 185° |
| 2026-05-06 11:12 | 36.96536 | 30.80159 | 1221 ft | 143 kts | 185° |
| 2026-05-06 11:12 | 36.95565 | 30.80026 | 1034 ft | 139 kts | 186° |
| 2026-05-06 11:12 | 36.94600 | 30.79894 | 844 ft | 136 kts | 185° |
| 2026-05-06 11:13 | 36.93684 | 30.79768 | 657 ft | 132 kts | 185° |
| 2026-05-06 11:13 | 36.92773 | 30.79647 | 476 ft | 131 kts | 185° |
| 2026-05-06 11:13 | 36.91863 | 30.79528 | 295 ft | 132 kts | 185° |
| 2026-05-06 11:13 | 36.90962 | 30.79400 | 191 ft | 122 kts | 185° |
| 2026-05-06 11:14 | 36.90291 | 30.79318 | 187 ft | 65 kts | 186° |